createdAt,value
2019-02-09T00:00:36.316Z,68.51
2019-02-09T00:03:08.469Z,68.45
2019-02-09T00:05:39.377Z,68.46
2019-02-09T00:08:11.215Z,68.42
2019-02-09T00:10:42.121Z,68.43
2019-02-09T00:13:13.052Z,68.56
2019-02-09T00:15:44.255Z,68.51
2019-02-09T00:18:15.249Z,68.40
2019-02-09T00:20:46.162Z,68.44
2019-02-09T00:23:17.099Z,68.73
2019-02-09T00:25:48.010Z,68.54
2019-02-09T00:28:18.944Z,68.47
2019-02-09T00:30:49.843Z,68.45
2019-02-09T00:33:20.800Z,68.37
2019-02-09T00:35:51.708Z,68.22
2019-02-09T00:38:22.650Z,68.38
2019-02-09T00:40:53.562Z,68.12
2019-02-09T00:43:24.499Z,67.97
2019-02-09T00:45:55.395Z,67.87
2019-02-09T00:48:26.352Z,67.86
2019-02-09T00:50:57.259Z,67.85
2019-02-09T00:53:28.231Z,67.91
2019-02-09T00:55:59.138Z,67.80
2019-02-09T00:58:30.079Z,67.65
2019-02-09T01:01:01.787Z,67.58
2019-02-09T01:03:32.750Z,67.62
2019-02-09T01:06:03.664Z,67.52
2019-02-09T01:08:34.596Z,67.51
2019-02-09T01:11:05.571Z,67.37
2019-02-09T01:13:36.494Z,67.56
2019-02-09T01:16:07.413Z,67.41
2019-02-09T01:18:38.352Z,67.39
2019-02-09T01:21:09.260Z,67.34
2019-02-09T01:23:40.224Z,67.14
2019-02-09T01:26:14.570Z,67.26
2019-02-09T01:28:45.513Z,67.05
2019-02-09T01:31:16.395Z,67.19
2019-02-09T01:33:47.347Z,67.21
2019-02-09T01:36:18.256Z,67.01
2019-02-09T01:38:49.764Z,66.94
2019-02-09T01:41:20.680Z,66.96
2019-02-09T01:43:51.618Z,66.90
2019-02-09T01:46:22.512Z,67.05
2019-02-09T01:48:53.481Z,66.93
2019-02-09T01:51:24.385Z,67.11
2019-02-09T01:53:55.312Z,66.91
2019-02-09T01:56:26.200Z,66.78
2019-02-09T01:58:57.138Z,66.86
2019-02-09T02:01:28.802Z,66.83
2019-02-09T02:03:59.749Z,66.71
2019-02-09T02:06:30.723Z,66.74
2019-02-09T02:09:01.737Z,66.82
2019-02-09T02:11:32.638Z,66.69
2019-02-09T02:14:03.559Z,66.79
2019-02-09T02:16:34.470Z,66.75
2019-02-09T02:19:05.423Z,66.75
2019-02-09T02:21:36.305Z,66.63
2019-02-09T02:24:07.250Z,66.46
2019-02-09T02:26:38.136Z,66.42
2019-02-09T02:29:09.060Z,66.29
2019-02-09T02:31:39.973Z,66.33
2019-02-09T02:34:10.943Z,66.12
2019-02-09T02:36:41.843Z,66.07
2019-02-09T02:39:12.778Z,65.86
2019-02-09T02:41:43.674Z,65.91
2019-02-09T02:44:14.610Z,65.79
2019-02-09T02:46:45.505Z,65.68
2019-02-09T02:49:16.462Z,65.52
2019-02-09T02:51:47.367Z,65.48
2019-02-09T02:54:18.297Z,65.43
2019-02-09T02:56:49.191Z,65.40
2019-02-09T02:59:20.156Z,65.38
2019-02-09T03:01:51.850Z,65.21
2019-02-09T03:04:22.818Z,65.10
2019-02-09T03:06:53.711Z,65.02
2019-02-09T03:09:24.723Z,64.97
2019-02-09T03:11:55.635Z,64.84
2019-02-09T03:14:26.633Z,64.67
2019-02-09T03:16:57.529Z,64.62
2019-02-09T03:19:28.505Z,64.43
2019-02-09T03:21:59.408Z,64.34
2019-02-09T03:24:30.337Z,64.38
2019-02-09T03:27:01.235Z,64.38
2019-02-09T03:29:32.199Z,64.20
2019-02-09T03:32:03.105Z,64.42
2019-02-09T03:34:34.061Z,64.16
2019-02-09T03:37:04.958Z,64.17
2019-02-09T03:39:35.894Z,64.41
2019-02-09T03:42:06.897Z,64.31
2019-02-09T03:44:37.840Z,64.22
2019-02-09T03:47:08.748Z,64.33
2019-02-09T03:49:39.897Z,64.45
2019-02-09T03:52:10.809Z,64.54
2019-02-09T03:54:41.733Z,64.32
2019-02-09T03:57:12.640Z,64.58
2019-02-09T03:59:43.572Z,64.63
2019-02-09T04:02:14.477Z,64.57
2019-02-09T04:04:45.444Z,64.58
2019-02-09T04:07:16.422Z,64.49
2019-02-09T04:09:47.348Z,64.50
2019-02-09T04:12:18.248Z,64.52
2019-02-09T04:14:49.195Z,64.55
2019-02-09T04:17:20.097Z,64.37
2019-02-09T04:19:51.028Z,64.51
2019-02-09T04:22:21.941Z,64.41
2019-02-09T04:24:52.877Z,64.28
2019-02-09T04:27:24.289Z,64.29
2019-02-09T04:29:55.227Z,64.19
2019-02-09T04:32:26.135Z,64.19
2019-02-09T04:34:57.084Z,64.21
2019-02-09T04:37:27.993Z,64.06
2019-02-09T04:39:58.910Z,64.09
2019-02-09T04:42:29.815Z,64.02
2019-02-09T04:45:00.824Z,64.15
2019-02-09T04:47:31.729Z,64.04
2019-02-09T04:50:02.793Z,64.00
2019-02-09T04:52:33.694Z,63.92
2019-02-09T04:55:06.877Z,63.98
2019-02-09T04:57:37.773Z,63.91
2019-02-09T05:00:17.366Z,64.01
2019-02-09T05:02:48.364Z,63.88
2019-02-09T05:05:19.401Z,64.01
2019-02-09T05:07:50.412Z,63.74
2019-02-09T05:10:22.949Z,63.71
2019-02-09T05:12:53.845Z,63.54
2019-02-09T05:15:24.777Z,63.45
2019-02-09T05:17:55.699Z,63.41
2019-02-09T05:20:26.663Z,63.35
2019-02-09T05:22:57.570Z,63.26
2019-02-09T05:25:28.643Z,63.13
2019-02-09T05:27:59.548Z,63.00
2019-02-09T05:30:31.073Z,62.62
2019-02-09T05:33:01.985Z,62.51
2019-02-09T05:35:32.936Z,62.35
2019-02-09T05:38:03.833Z,62.08
2019-02-09T05:40:35.845Z,61.83
2019-02-09T05:43:06.746Z,61.44
2019-02-09T05:45:37.699Z,61.33
2019-02-09T05:48:08.610Z,61.00
2019-02-09T05:50:39.545Z,60.97
2019-02-09T05:53:10.512Z,60.68
2019-02-09T05:55:41.445Z,60.32
2019-02-09T05:58:12.335Z,60.01
2019-02-09T06:00:45.038Z,59.53
2019-02-09T06:03:16.002Z,59.38
2019-02-09T06:05:46.955Z,59.03
2019-02-09T06:08:17.852Z,58.64
2019-02-09T06:10:48.767Z,58.43
2019-02-09T06:13:19.667Z,58.29
2019-02-09T06:15:50.592Z,57.90
2019-02-09T06:18:21.490Z,57.47
2019-02-09T06:20:52.427Z,57.46
2019-02-09T06:23:23.319Z,57.38
2019-02-09T06:25:54.266Z,57.23
2019-02-09T06:28:25.145Z,57.05
2019-02-09T06:30:56.067Z,56.91
2019-02-09T06:33:26.974Z,56.78
2019-02-09T06:35:57.944Z,56.50
2019-02-09T06:38:28.838Z,56.49
2019-02-09T06:40:59.763Z,56.34
2019-02-09T06:43:30.666Z,56.37
2019-02-09T06:46:01.583Z,56.14
2019-02-09T06:48:32.474Z,55.97
2019-02-09T06:51:04.032Z,56.05
2019-02-09T06:53:34.947Z,56.08
2019-02-09T06:56:06.066Z,56.15
2019-02-09T06:58:36.979Z,56.17
2019-02-09T07:01:07.966Z,56.00
2019-02-09T07:03:38.869Z,56.06
2019-02-09T07:06:09.815Z,56.11
2019-02-09T07:08:40.705Z,56.16
2019-02-09T07:11:11.639Z,56.14
2019-02-09T07:13:42.540Z,56.43
2019-02-09T07:16:13.461Z,56.37
2019-02-09T07:18:44.361Z,56.34
2019-02-09T07:21:15.315Z,56.33
2019-02-09T07:23:46.219Z,56.37
2019-02-09T07:26:17.152Z,56.46
2019-02-09T07:28:48.050Z,56.60
2019-02-09T07:31:18.979Z,56.64
2019-02-09T07:33:49.873Z,56.92
2019-02-09T07:36:20.863Z,56.83
2019-02-09T07:38:51.759Z,56.83
2019-02-09T07:41:22.691Z,56.82
2019-02-09T07:43:53.596Z,56.97
2019-02-09T07:46:24.543Z,57.09
2019-02-09T07:48:55.452Z,57.01
2019-02-09T07:51:26.425Z,57.12
2019-02-09T07:53:57.337Z,57.23
2019-02-09T07:56:28.269Z,57.30
2019-02-09T07:58:59.176Z,57.21
2019-02-09T08:01:30.101Z,57.15
2019-02-09T08:04:01.013Z,57.23
2019-02-09T08:06:31.977Z,57.25
2019-02-09T08:09:04.749Z,57.27
2019-02-09T08:11:35.685Z,57.36
2019-02-09T08:14:06.579Z,57.41
2019-02-09T08:16:37.516Z,57.31
2019-02-09T08:19:08.425Z,57.28
2019-02-09T08:21:39.416Z,57.17
2019-02-09T08:24:10.347Z,57.19
2019-02-09T08:26:41.287Z,57.07
2019-02-09T08:29:12.197Z,56.95
2019-02-09T08:31:43.122Z,56.86
2019-02-09T08:34:14.023Z,56.87
2019-02-09T08:36:44.990Z,56.57
2019-02-09T08:39:15.890Z,56.55
2019-02-09T08:41:46.823Z,56.51
2019-02-09T08:44:17.808Z,56.54
2019-02-09T08:46:48.736Z,56.42
2019-02-09T08:49:19.642Z,56.39
2019-02-09T08:51:50.592Z,56.45
2019-02-09T08:54:21.486Z,56.36
2019-02-09T08:56:52.424Z,56.37
2019-02-09T08:59:23.328Z,56.30
2019-02-09T09:01:54.268Z,56.26
2019-02-09T09:04:26.102Z,56.19
2019-02-09T09:06:57.167Z,56.14
2019-02-09T09:09:28.087Z,56.32
2019-02-09T09:11:59.022Z,56.25
2019-02-09T09:14:29.933Z,56.43
2019-02-09T09:17:00.871Z,56.48
2019-02-09T09:19:31.771Z,56.54
2019-02-09T09:22:02.817Z,56.48
2019-02-09T09:24:33.721Z,56.61
2019-02-09T09:27:04.771Z,56.57
2019-02-09T09:29:35.678Z,56.45
2019-02-09T09:32:06.618Z,56.51
2019-02-09T09:34:37.522Z,56.64
2019-02-09T09:37:08.477Z,56.63
2019-02-09T09:39:39.381Z,56.73
2019-02-09T09:42:10.320Z,56.65
2019-02-09T09:44:41.246Z,56.72
2019-02-09T09:47:12.290Z,56.69
2019-02-09T09:49:43.184Z,56.76
2019-02-09T09:52:14.142Z,56.80
2019-02-09T09:54:45.041Z,56.83
2019-02-09T09:57:15.977Z,56.92
2019-02-09T09:59:46.896Z,56.98
2019-02-09T10:02:17.842Z,56.88
2019-02-09T10:04:48.740Z,56.96
2019-02-09T10:07:19.687Z,56.86
2019-02-09T10:09:50.603Z,56.90
2019-02-09T10:12:21.539Z,56.70
2019-02-09T10:14:52.432Z,56.65
2019-02-09T10:17:23.364Z,56.60
2019-02-09T10:19:54.262Z,56.38
2019-02-09T10:22:25.224Z,56.33
2019-02-09T10:24:56.144Z,56.11
2019-02-09T10:27:27.073Z,56.13
2019-02-09T10:29:57.986Z,55.95
2019-02-09T10:32:28.844Z,55.91
2019-02-09T10:34:59.836Z,55.56
2019-02-09T10:37:30.836Z,55.21
2019-02-09T10:40:01.782Z,55.00
2019-02-09T10:42:32.753Z,54.88
2019-02-09T10:45:05.476Z,54.69
2019-02-09T10:47:36.449Z,53.83
2019-02-09T10:50:16.320Z,54.00
2019-02-09T10:52:47.267Z,53.85
2019-02-09T10:55:18.173Z,53.97
2019-02-09T10:57:50.601Z,53.87
2019-02-09T11:00:38.830Z,53.98
2019-02-09T11:03:09.956Z,53.93
2019-02-09T11:05:41.042Z,53.84
2019-02-09T11:08:12.045Z,53.75
2019-02-09T11:10:42.951Z,53.57
2019-02-09T11:13:13.873Z,53.42
2019-02-09T11:15:44.783Z,53.63
2019-02-09T11:18:15.723Z,53.67
2019-02-09T11:20:46.630Z,54.13
2019-02-09T11:23:17.584Z,54.29
2019-02-09T11:25:48.486Z,54.44
2019-02-09T11:28:19.422Z,54.92
2019-02-09T11:30:50.329Z,55.11
2019-02-09T11:33:22.040Z,55.45
2019-02-09T11:35:52.954Z,56.63
2019-02-09T11:38:23.963Z,57.24
2019-02-09T11:40:54.850Z,58.54
2019-02-09T11:43:25.848Z,60.11
2019-02-09T11:45:56.759Z,61.49
2019-02-09T11:48:28.501Z,62.08
2019-02-09T11:50:59.407Z,62.40
2019-02-09T11:53:30.365Z,62.71
2019-02-09T11:56:01.333Z,63.22
2019-02-09T11:58:32.277Z,63.52
2019-02-09T12:01:03.256Z,63.35
2019-02-09T12:03:34.180Z,63.60
2019-02-09T12:06:06.060Z,63.29
2019-02-09T12:08:37.022Z,63.27
2019-02-09T12:11:07.922Z,63.02
2019-02-09T12:13:38.942Z,63.02
2019-02-09T12:16:09.844Z,62.75
2019-02-09T12:18:40.780Z,62.44
2019-02-09T12:21:11.681Z,62.48
2019-02-09T12:23:42.851Z,62.26
2019-02-09T12:26:13.754Z,62.02
2019-02-09T12:28:44.698Z,62.00
2019-02-09T12:31:15.602Z,62.28
2019-02-09T12:33:46.541Z,61.89
2019-02-09T12:36:17.451Z,62.14
2019-02-09T12:38:48.415Z,62.56
2019-02-09T12:41:19.325Z,62.68
2019-02-09T12:43:50.268Z,62.92
2019-02-09T12:46:21.227Z,63.79
2019-02-09T12:48:52.150Z,63.95
2019-02-09T12:51:23.066Z,64.18
2019-02-09T12:53:54.015Z,64.56
2019-02-09T12:56:24.913Z,64.86
2019-02-09T12:58:55.943Z,65.40
2019-02-09T13:01:27.018Z,66.10
2019-02-09T13:03:57.947Z,66.62
2019-02-09T13:06:29.688Z,66.66
2019-02-09T13:09:00.637Z,66.82
2019-02-09T13:11:31.543Z,67.49
2019-02-09T13:14:02.479Z,67.46
2019-02-09T13:16:33.387Z,68.23
2019-02-09T13:19:04.637Z,69.16
2019-02-09T13:21:35.551Z,69.57
2019-02-09T13:24:06.627Z,69.90
2019-02-09T13:26:37.562Z,70.10
2019-02-09T13:29:08.496Z,70.18
2019-02-09T13:31:39.398Z,70.06
2019-02-09T13:34:10.344Z,69.85
2019-02-09T13:36:41.260Z,70.51
2019-02-09T13:39:12.208Z,70.44
2019-02-09T13:41:43.114Z,70.74
2019-02-09T13:44:14.118Z,70.64
2019-02-09T13:46:45.033Z,70.82
2019-02-09T13:49:15.956Z,71.54
2019-02-09T13:51:46.868Z,71.17
2019-02-09T13:54:17.806Z,71.62
2019-02-09T13:56:48.780Z,71.23
2019-02-09T13:59:19.728Z,71.37
2019-02-09T14:01:52.403Z,71.50
2019-02-09T14:04:26.989Z,71.42
2019-02-09T14:06:57.880Z,72.35
2019-02-09T14:09:29.126Z,72.11
2019-02-09T14:12:00.121Z,72.21
2019-02-09T14:14:31.060Z,72.28
2019-02-09T14:17:01.963Z,72.78
2019-02-09T14:19:32.894Z,72.47
2019-02-09T14:22:03.905Z,72.57
2019-02-09T14:24:34.887Z,72.67
2019-02-09T14:27:05.774Z,72.80
2019-02-09T14:29:36.718Z,72.95
2019-02-09T14:32:07.693Z,72.67
2019-02-09T14:34:38.615Z,73.10
2019-02-09T14:37:09.512Z,72.86
2019-02-09T14:39:40.451Z,73.08
2019-02-09T14:42:11.353Z,72.87
2019-02-09T14:44:42.270Z,72.78
2019-02-09T14:47:13.186Z,72.94
2019-02-09T14:49:44.118Z,72.94
2019-02-09T14:52:15.028Z,73.11
2019-02-09T14:54:46.011Z,72.97
2019-02-09T14:57:16.926Z,72.89
2019-02-09T14:59:47.994Z,73.40
2019-02-09T15:02:18.836Z,73.08
2019-02-09T15:04:49.770Z,73.55
2019-02-09T15:07:20.680Z,72.99
2019-02-09T15:09:51.637Z,73.06
2019-02-09T15:12:22.540Z,73.29
2019-02-09T15:14:53.553Z,73.00
2019-02-09T15:17:24.465Z,73.20
2019-02-09T15:19:55.387Z,73.52
2019-02-09T15:22:26.291Z,73.51
2019-02-09T15:24:57.256Z,73.47
2019-02-09T15:27:28.147Z,73.62
2019-02-09T15:29:59.090Z,73.55
2019-02-09T15:32:30.433Z,73.70
2019-02-09T15:35:01.380Z,73.62
2019-02-09T15:37:32.286Z,73.59
2019-02-09T15:40:03.434Z,73.84
2019-02-09T15:42:34.334Z,73.46
2019-02-09T15:45:08.418Z,73.55
2019-02-09T15:47:39.330Z,73.49
2019-02-09T15:50:15.005Z,73.44
2019-02-09T15:52:46.430Z,73.62
2019-02-09T15:55:22.032Z,73.47
2019-02-09T15:57:52.949Z,73.41
2019-02-09T16:00:28.972Z,73.34
2019-02-09T16:03:00.775Z,73.20
2019-02-09T16:05:31.704Z,73.19
2019-02-09T16:08:02.938Z,73.04
2019-02-09T16:10:33.954Z,73.25
2019-02-09T16:13:07.765Z,72.63
2019-02-09T16:15:38.701Z,72.63
2019-02-09T16:18:09.601Z,72.51
2019-02-09T16:20:40.554Z,72.50
2019-02-09T16:23:11.451Z,72.55
2019-02-09T16:25:42.412Z,72.20
2019-02-09T16:28:13.420Z,72.05
2019-02-09T16:30:44.354Z,72.27
2019-02-09T16:33:15.256Z,72.18
2019-02-09T16:35:46.198Z,72.52
2019-02-09T16:38:17.098Z,72.59
2019-02-09T16:40:48.078Z,72.72
2019-02-09T16:43:19.050Z,72.83
2019-02-09T16:45:49.987Z,72.66
2019-02-09T16:48:20.892Z,72.82
2019-02-09T16:50:51.813Z,72.86
2019-02-09T16:53:22.718Z,72.57
2019-02-09T16:55:53.685Z,72.68
2019-02-09T16:58:24.593Z,72.77
2019-02-09T17:00:55.721Z,72.67
2019-02-09T17:03:26.621Z,72.56
2019-02-09T17:05:57.557Z,72.50
2019-02-09T17:08:28.458Z,72.64
2019-02-09T17:10:59.408Z,72.40
2019-02-09T17:13:30.312Z,72.40
2019-02-09T17:16:01.315Z,72.76
2019-02-09T17:18:32.220Z,72.74
2019-02-09T17:21:03.156Z,72.90
2019-02-09T17:23:34.065Z,73.29
2019-02-09T17:26:05.402Z,73.38
2019-02-09T17:28:36.299Z,73.52
2019-02-09T17:31:07.343Z,73.69
2019-02-09T17:33:38.255Z,73.92
2019-02-09T17:36:09.190Z,74.04
2019-02-09T17:38:40.097Z,74.28
2019-02-09T17:41:11.051Z,74.12
2019-02-09T17:43:42.039Z,74.07
2019-02-09T17:46:13.276Z,73.91
2019-02-09T17:48:44.183Z,74.04
2019-02-09T17:51:15.118Z,74.23
2019-02-09T17:53:46.015Z,73.93
2019-02-09T17:56:16.999Z,73.92
2019-02-09T17:58:47.903Z,73.88
2019-02-09T18:01:18.916Z,73.62
2019-02-09T18:03:49.825Z,73.28
2019-02-09T18:06:21.400Z,73.24
2019-02-09T18:08:52.300Z,73.28
2019-02-09T18:11:23.356Z,73.39
2019-02-09T18:13:54.253Z,73.06
2019-02-09T18:16:25.185Z,72.98
2019-02-09T18:18:56.089Z,72.72
2019-02-09T18:21:27.045Z,72.41
2019-02-09T18:23:57.952Z,72.64
2019-02-09T18:26:28.919Z,72.52
2019-02-09T18:28:59.833Z,72.54
2019-02-09T18:31:30.784Z,72.59
2019-02-09T18:34:01.689Z,72.63
2019-02-09T18:36:32.625Z,72.54
2019-02-09T18:39:06.615Z,72.69
2019-02-09T18:41:37.568Z,72.68
2019-02-09T18:44:08.475Z,72.56
2019-02-09T18:46:39.425Z,72.44
2019-02-09T18:49:10.396Z,72.67
2019-02-09T18:51:41.335Z,72.60
2019-02-09T18:54:12.226Z,72.62
2019-02-09T18:56:43.181Z,72.79
2019-02-09T18:59:14.086Z,72.73
2019-02-09T19:01:45.014Z,72.91
2019-02-09T19:04:15.925Z,72.90
2019-02-09T19:06:46.854Z,72.83
2019-02-09T19:09:18.005Z,72.90
2019-02-09T19:11:49.011Z,72.58
2019-02-09T19:14:20.412Z,72.36
2019-02-09T19:16:51.413Z,72.37
2019-02-09T19:19:22.315Z,72.18
2019-02-09T19:21:53.240Z,72.01
2019-02-09T19:24:24.153Z,71.92
2019-02-09T19:26:55.092Z,72.06
2019-02-09T19:29:25.984Z,71.87
2019-02-09T19:31:56.903Z,71.54
2019-02-09T19:34:27.802Z,71.57
2019-02-09T19:36:58.730Z,71.39
2019-02-09T19:39:29.615Z,71.19
2019-02-09T19:42:00.659Z,70.97
2019-02-09T19:44:31.557Z,70.94
2019-02-09T19:47:02.461Z,70.84
2019-02-09T19:49:33.358Z,70.65
2019-02-09T19:52:04.672Z,70.57
2019-02-09T19:54:35.578Z,70.70
2019-02-09T19:57:06.543Z,70.77
2019-02-09T19:59:37.458Z,70.57
2019-02-09T20:02:08.462Z,70.59
2019-02-09T20:04:39.372Z,70.85
2019-02-09T20:07:10.304Z,70.99
2019-02-09T20:09:41.212Z,70.90
2019-02-09T20:12:12.283Z,70.91
2019-02-09T20:14:43.187Z,70.88
2019-02-09T20:17:14.126Z,70.86
2019-02-09T20:19:45.025Z,70.77
2019-02-09T20:22:16.033Z,70.77
2019-02-09T20:24:46.940Z,70.77
2019-02-09T20:27:17.903Z,70.72
2019-02-09T20:29:48.799Z,70.97
2019-02-09T20:32:19.733Z,71.15
2019-02-09T20:34:50.725Z,70.88
2019-02-09T20:37:21.725Z,70.84
2019-02-09T20:39:52.630Z,70.62
2019-02-09T20:42:23.600Z,70.59
2019-02-09T20:44:54.494Z,70.49
2019-02-09T20:47:25.425Z,70.39
2019-02-09T20:49:56.315Z,70.17
2019-02-09T20:52:27.343Z,70.29
2019-02-09T20:54:58.205Z,70.23
2019-02-09T20:57:29.282Z,70.10
2019-02-09T21:00:00.269Z,70.25
2019-02-09T21:02:31.210Z,70.35
2019-02-09T21:05:02.128Z,70.17
2019-02-09T21:07:33.039Z,70.15
2019-02-09T21:10:10.422Z,69.87
2019-02-09T21:12:41.371Z,69.87
2019-02-09T21:15:17.929Z,69.66
2019-02-09T21:17:48.857Z,69.60
2019-02-09T21:20:20.164Z,69.44
2019-02-09T21:22:51.195Z,69.35
2019-02-09T21:25:30.072Z,69.28
2019-02-09T21:28:01.172Z,69.28
2019-02-09T21:30:32.238Z,69.17
2019-02-09T21:33:03.171Z,68.98
2019-02-09T21:35:34.069Z,68.84
2019-02-09T21:38:05.338Z,69.01
2019-02-09T21:40:36.607Z,69.11
2019-02-09T21:43:07.567Z,69.15
2019-02-09T21:45:45.003Z,69.28
2019-02-09T21:48:11.434Z,69.22
2019-02-09T21:50:42.327Z,69.09
2019-02-09T21:53:13.250Z,69.06
2019-02-09T21:55:44.149Z,68.97
2019-02-09T21:58:15.093Z,68.84
2019-02-09T22:00:46.506Z,68.72
2019-02-09T22:03:17.436Z,68.46
2019-02-09T22:05:51.941Z,68.50
2019-02-09T22:08:20.954Z,68.28
2019-02-09T22:10:52.620Z,68.36
2019-02-09T22:13:23.768Z,68.08
2019-02-09T22:15:54.652Z,67.95
2019-02-09T22:18:25.622Z,67.79
2019-02-09T22:20:56.565Z,67.82
2019-02-09T22:23:27.511Z,67.90
2019-02-09T22:25:58.408Z,67.73
2019-02-09T22:28:29.374Z,67.70
2019-02-09T22:31:00.207Z,67.88
2019-02-09T22:33:31.114Z,67.71
2019-02-09T22:36:02.016Z,67.47
2019-02-09T22:38:32.935Z,67.37
2019-02-09T22:41:03.902Z,67.45
2019-02-09T22:43:34.854Z,67.51
2019-02-09T22:46:06.673Z,67.51
2019-02-09T22:48:38.204Z,67.52
2019-02-09T22:51:09.092Z,67.48
2019-02-09T22:53:40.008Z,67.29
2019-02-09T22:56:10.909Z,67.34
2019-02-09T22:58:41.934Z,67.22
2019-02-09T23:01:36.654Z,67.18
2019-02-09T23:04:10.481Z,67.34
2019-02-09T23:06:52.736Z,67.25
2019-02-09T23:09:22.754Z,67.20
2019-02-09T23:11:54.692Z,67.20
2019-02-09T23:14:25.685Z,67.07
2019-02-09T23:16:56.557Z,67.23
2019-02-09T23:19:27.485Z,67.09
2019-02-09T23:21:58.373Z,66.97
2019-02-09T23:24:29.292Z,67.06
2019-02-09T23:27:00.261Z,67.12
2019-02-09T23:29:31.209Z,67.47
2019-02-09T23:32:02.096Z,67.38
2019-02-09T23:34:33.085Z,67.28
2019-02-09T23:37:03.984Z,67.15
2019-02-09T23:39:34.900Z,67.23
2019-02-09T23:42:05.794Z,67.28
2019-02-09T23:44:36.746Z,67.41
2019-02-09T23:47:07.638Z,67.60
2019-02-09T23:49:38.558Z,68.13
2019-02-09T23:52:09.512Z,68.99
2019-02-09T23:54:40.436Z,69.01
2019-02-09T23:57:11.334Z,68.90
2019-02-09T23:59:42.270Z,68.71
